Lihue, HI

10:31 AM HST on May 24, 2015 (GMT -1000)
Lihue | | Change Station
CLOSE
Current Station
Personal Weather Station
Location: Lihue, HI
Elevation: 342 ft
Nearby Weather Stations

Elev 342 ft 21.97 °N, 159.40 °W | Updated 27 minutes ago

Overcast
Overcast
70.1 °F
Feels Like 70.1 °F
N
1.3
Wind Variable Wind from NNW
Gusts 5.4 mph

Today
High -- | Low -- °F
--% Chance of Precip.
Yesterday
High -- | Low -- °F
Precip. -- in
5:55 AM 7:13 PM
Waxing Crescent, 42% visible
Pressure 30.12 in
Visibility 10.0 miles
Clouds Scattered Clouds 3400 ft
Scattered Clouds 4400 ft
Overcast 6000 ft
Dew Point 66 °F
Humidity 86%
Rainfall -999.00 in
Snow Depth Not available.
UV 2 out of 12
Pollen Not available.
Air Quality Not available.
Flu Activity Local Activity
METAR PHLI 241953Z 02016KT 10SM SCT034 SCT044 OVC060 23/15 A3012 RMK AO2 SLP198 T02280150

More Conditions Fewer Conditions

Pressure 30.12 in
Visibility 10.0 miles
Clouds Scattered Clouds 3400 ft
Scattered Clouds 4400 ft
Overcast 6000 ft
Dew Point 66 °F
Humidity 86%
Rainfall -999.00 in
Snow Depth Not available.
UV 2 out of 12
Pollen Not available.
Air Quality Not available.
Flu Activity Local Activity
METAR PHLI 241953Z 02016KT 10SM SCT034 SCT044 OVC060 23/15 A3012 RMK AO2 SLP198 T02280150

More Conditions Fewer Conditions

10-Day Weather Forecast

Almanac

Astronomy

May. 24, 2015 Rise Set
Actual Time
Civil Twilight
Nautical Twilight
Astronomical Twilight
Moon
Length of Visible Light
Length of Day
Tomorrow will be .
, % of the Moon is Illuminated

Today's Extremes

State Highs State Lows

Community

WunderPhotos

Upload Photos

1,823,859 photos uploaded!

WunderBlogs® & News

Nearby

Air Quality

  Air Quality AQ Index Pollutant
Not available.

Snow Depth

Station Depth Elevation

Earthquake Activity

City Distance Mag. Time & Date
Minimum magnitude displayed is 2.5.

Coastal Water Temperatures

Place Temperature

Stations

Nearby Weather Stations

Station Location Temp. Windchill Dew Point Humidity Wind Precip. Elev Updated Type